createdAt,value
2023-05-19T00:01:00.618Z,1.65
2023-05-19T00:03:29.119Z,1.13
2023-05-19T00:05:58.824Z,1.20
2023-05-19T00:08:31.205Z,1.35
2023-05-19T00:10:59.397Z,1.40
2023-05-19T00:13:28.193Z,1.83
2023-05-19T00:15:56.321Z,1.40
2023-05-19T00:18:24.178Z,1.70
2023-05-19T00:20:52.427Z,1.27
2023-05-19T00:23:20.325Z,1.25
2023-05-19T00:25:48.100Z,1.40
2023-05-19T00:28:16.167Z,1.60
2023-05-19T00:30:43.981Z,1.42
2023-05-19T00:33:11.860Z,1.30
2023-05-19T00:35:40.724Z,1.67
2023-05-19T00:38:08.578Z,1.50
2023-05-19T00:40:36.577Z,1.50
2023-05-19T00:43:05.640Z,1.45
2023-05-19T00:45:33.522Z,1.33
2023-05-19T00:48:01.403Z,1.45
2023-05-19T00:50:29.349Z,1.60
2023-05-19T00:52:57.923Z,1.38
2023-05-19T00:55:29.252Z,1.80
2023-05-19T00:57:57.669Z,1.80
2023-05-19T01:00:25.568Z,1.52
2023-05-19T01:02:54.326Z,1.52
2023-05-19T01:05:22.342Z,1.40
2023-05-19T01:07:55.554Z,1.90
2023-05-19T01:10:23.360Z,1.60
2023-05-19T01:12:51.188Z,1.70
2023-05-19T01:15:19.609Z,1.40
2023-05-19T01:18:11.702Z,1.55
2023-05-19T01:20:52.487Z,1.38
2023-05-19T01:24:22.950Z,1.40
2023-05-19T01:27:34.612Z,1.92
2023-05-19T01:30:39.968Z,1.27
2023-05-19T01:33:14.077Z,1.30
2023-05-19T01:35:44.113Z,1.25
2023-05-19T01:38:14.804Z,1.45
2023-05-19T01:40:44.055Z,1.30
2023-05-19T01:43:20.941Z,1.50
2023-05-19T01:45:49.947Z,1.85
2023-05-19T01:48:18.892Z,1.20
2023-05-19T01:50:47.196Z,1.27
2023-05-19T01:53:16.593Z,1.20
2023-05-19T01:55:52.211Z,1.50
2023-05-19T01:58:48.036Z,1.60
2023-05-19T02:01:44.875Z,1.38
2023-05-19T02:04:15.729Z,1.75
2023-05-19T02:07:34.439Z,2.10
2023-05-19T02:10:16.314Z,1.33
2023-05-19T02:12:46.098Z,1.70
2023-05-19T02:15:21.999Z,1.38
2023-05-19T02:17:54.380Z,1.40
2023-05-19T02:20:22.444Z,1.63
2023-05-19T02:22:50.468Z,1.50
2023-05-19T02:25:18.348Z,1.70
2023-05-19T02:27:46.456Z,1.77
2023-05-19T02:30:14.269Z,2.50
2023-05-19T02:32:42.110Z,4.05
2023-05-19T02:35:10.702Z,2.28
2023-05-19T02:37:38.772Z,1.88
2023-05-19T02:40:09.033Z,1.45
2023-05-19T02:42:36.901Z,1.80
2023-05-19T02:45:05.617Z,1.73
2023-05-19T02:47:35.456Z,1.67
2023-05-19T02:50:06.348Z,2.58
2023-05-19T02:52:34.239Z,2.90
2023-05-19T02:55:02.103Z,3.88
2023-05-19T02:57:31.752Z,2.90
2023-05-19T02:59:59.790Z,4.00
2023-05-19T03:02:27.724Z,2.33
2023-05-19T03:04:55.671Z,2.60
2023-05-19T03:07:25.297Z,3.35
2023-05-19T03:09:53.285Z,3.15
2023-05-19T03:12:21.891Z,3.00
2023-05-19T03:14:49.873Z,3.75
2023-05-19T03:17:17.751Z,4.20
2023-05-19T03:19:45.579Z,6.68
2023-05-19T03:22:13.521Z,4.97
2023-05-19T03:24:41.377Z,2.72
2023-05-19T03:27:09.184Z,4.95
2023-05-19T03:29:37.987Z,4.63
2023-05-19T03:32:06.021Z,2.65
2023-05-19T03:34:35.426Z,2.15
2023-05-19T03:37:03.685Z,2.15
2023-05-19T03:39:31.626Z,3.03
2023-05-19T03:41:59.540Z,2.17
2023-05-19T03:44:27.337Z,1.75
2023-05-19T03:46:55.260Z,1.45
2023-05-19T03:49:48.889Z,1.70
2023-05-19T03:52:19.470Z,2.20
2023-05-19T03:54:58.709Z,2.05
2023-05-19T03:57:26.952Z,2.17
2023-05-19T03:59:54.976Z,2.70
2023-05-19T04:02:22.850Z,2.25
2023-05-19T04:04:51.236Z,3.15
2023-05-19T04:07:19.260Z,3.53
2023-05-19T04:09:48.587Z,4.25
2023-05-19T04:12:16.397Z,2.90
2023-05-19T04:14:44.254Z,5.15
2023-05-19T04:17:12.139Z,3.45
2023-05-19T04:19:40.363Z,3.65
2023-05-19T04:22:08.188Z,3.72
2023-05-19T04:24:36.176Z,5.15
2023-05-19T04:27:04.888Z,6.82
2023-05-19T04:29:32.724Z,7.25
2023-05-19T04:32:01.059Z,8.02
2023-05-19T04:34:29.164Z,7.38
2023-05-19T04:36:57.469Z,10.10
2023-05-19T04:39:25.671Z,10.98
2023-05-19T04:41:56.683Z,9.80
2023-05-19T04:44:24.896Z,7.13
2023-05-19T04:46:54.464Z,5.10
2023-05-19T04:49:28.632Z,4.95
2023-05-19T04:51:56.611Z,5.18
2023-05-19T04:54:28.612Z,4.28
2023-05-19T04:56:57.052Z,4.47
2023-05-19T04:59:27.115Z,3.40
2023-05-19T05:01:56.220Z,3.88
2023-05-19T05:04:25.951Z,3.80
2023-05-19T05:06:54.430Z,3.83
2023-05-19T05:09:23.109Z,3.75
2023-05-19T05:11:51.741Z,3.78
2023-05-19T05:14:20.783Z,3.13
2023-05-19T05:16:49.895Z,2.85
2023-05-19T05:19:23.069Z,2.60
2023-05-19T05:21:52.221Z,3.65
2023-05-19T05:24:21.229Z,2.70
2023-05-19T05:26:54.372Z,3.60
2023-05-19T05:29:22.232Z,2.97
2023-05-19T05:31:50.492Z,4.10
2023-05-19T05:34:18.550Z,2.83
2023-05-19T05:36:46.373Z,2.55
2023-05-19T05:39:14.193Z,2.30
2023-05-19T05:41:43.649Z,2.20
2023-05-19T05:44:13.195Z,2.50
2023-05-19T05:46:43.653Z,4.72
2023-05-19T05:49:13.457Z,4.10
2023-05-19T05:51:54.270Z,3.03
2023-05-19T05:54:31.312Z,2.30
2023-05-19T05:56:59.778Z,1.80
2023-05-19T05:59:27.674Z,1.77
2023-05-19T06:01:55.713Z,2.40
2023-05-19T06:04:27.599Z,3.10
2023-05-19T06:07:01.058Z,2.35
2023-05-19T06:09:32.876Z,2.03
2023-05-19T06:12:01.066Z,3.08
2023-05-19T06:14:33.401Z,2.30
2023-05-19T06:17:19.427Z,2.20
2023-05-19T06:19:48.497Z,2.28
2023-05-19T06:22:16.451Z,2.75
2023-05-19T06:24:45.052Z,2.33
2023-05-19T06:27:13.552Z,1.80
2023-05-19T06:29:41.357Z,1.90
2023-05-19T06:32:10.260Z,1.88
2023-05-19T06:34:40.556Z,2.45
2023-05-19T06:37:08.613Z,1.90
2023-05-19T06:39:38.055Z,1.48
2023-05-19T06:42:06.055Z,1.70
2023-05-19T06:44:52.358Z,1.70
2023-05-19T06:47:20.272Z,4.70
2023-05-19T06:49:51.647Z,3.40
2023-05-19T06:52:19.517Z,9.20
2023-05-19T06:54:50.893Z,2.85
2023-05-19T06:57:19.661Z,2.20
2023-05-19T06:59:47.518Z,3.70
2023-05-19T07:02:16.037Z,2.17
2023-05-19T07:04:43.873Z,1.80
2023-05-19T07:07:14.626Z,2.35
2023-05-19T07:09:45.017Z,1.70
2023-05-19T07:12:13.021Z,1.58
2023-05-19T07:14:41.153Z,5.22
2023-05-19T07:17:09.313Z,2.70
2023-05-19T07:19:39.138Z,2.60
2023-05-19T07:22:07.110Z,2.03
2023-05-19T07:24:35.118Z,2.08
2023-05-19T07:27:03.010Z,2.30
2023-05-19T07:29:31.145Z,6.25
2023-05-19T07:31:58.976Z,2.75
2023-05-19T07:34:26.861Z,6.30
2023-05-19T07:36:55.200Z,3.65
2023-05-19T07:39:25.293Z,2.03
2023-05-19T07:41:55.685Z,1.80
2023-05-19T07:44:23.542Z,2.03
2023-05-19T07:46:51.296Z,1.88
2023-05-19T07:49:22.732Z,1.60
2023-05-19T07:51:52.777Z,1.70
2023-05-19T07:54:21.339Z,1.40
2023-05-19T07:56:49.349Z,1.60
2023-05-19T07:59:17.247Z,1.20
2023-05-19T08:01:45.647Z,1.42
2023-05-19T08:04:14.081Z,1.58
2023-05-19T08:06:44.608Z,1.60
2023-05-19T08:09:12.514Z,1.65
2023-05-19T08:11:40.300Z,1.50
2023-05-19T08:14:08.096Z,1.73
2023-05-19T08:16:35.960Z,1.73
2023-05-19T08:19:06.790Z,1.85
2023-05-19T08:21:35.532Z,1.70
2023-05-19T08:24:04.352Z,1.70
2023-05-19T08:26:32.174Z,1.50
2023-05-19T08:29:00.068Z,1.35
2023-05-19T08:31:28.495Z,1.30
2023-05-19T08:33:56.625Z,1.70
2023-05-19T08:36:24.885Z,1.73
2023-05-19T08:38:52.706Z,1.60
2023-05-19T08:41:21.608Z,1.73
2023-05-19T08:43:50.225Z,1.77
2023-05-19T08:46:19.091Z,1.73
2023-05-19T08:48:48.650Z,1.90
2023-05-19T08:51:36.011Z,1.50
2023-05-19T08:54:14.562Z,1.50
2023-05-19T08:56:45.541Z,1.40
2023-05-19T08:59:17.436Z,1.25
2023-05-19T09:01:47.020Z,1.67
2023-05-19T09:04:17.532Z,1.58
2023-05-19T09:06:45.483Z,1.50
2023-05-19T09:09:13.509Z,1.90
2023-05-19T09:11:45.286Z,1.80
2023-05-19T09:14:13.112Z,1.48
2023-05-19T09:16:41.874Z,1.98
2023-05-19T09:19:15.906Z,1.50
2023-05-19T09:21:45.779Z,1.55
2023-05-19T09:24:13.880Z,1.58
2023-05-19T09:26:43.097Z,1.27
2023-05-19T09:29:17.593Z,1.30
2023-05-19T09:32:00.496Z,1.85
2023-05-19T09:34:31.163Z,1.80
2023-05-19T09:36:59.866Z,1.58
2023-05-19T09:39:28.910Z,1.48
2023-05-19T09:41:58.739Z,1.52
2023-05-19T09:44:31.240Z,1.70
2023-05-19T09:47:00.188Z,1.50
2023-05-19T09:49:30.288Z,1.70
2023-05-19T09:52:00.528Z,2.10
2023-05-19T09:54:29.904Z,1.85
2023-05-19T09:57:05.192Z,1.50
2023-05-19T09:59:35.764Z,1.40
2023-05-19T10:02:04.088Z,1.70
2023-05-19T10:04:32.435Z,1.52
2023-05-19T10:07:05.620Z,1.80
2023-05-19T10:09:36.356Z,1.70
2023-05-19T10:12:05.632Z,1.67
2023-05-19T10:14:33.413Z,1.60
2023-05-19T10:17:01.785Z,1.60
2023-05-19T10:19:30.172Z,1.70
2023-05-19T10:22:00.043Z,1.50
2023-05-19T10:24:27.884Z,1.42
2023-05-19T10:27:05.105Z,1.48
2023-05-19T10:29:39.033Z,1.50
2023-05-19T10:32:24.789Z,1.70
2023-05-19T10:35:20.518Z,1.92
2023-05-19T10:38:35.036Z,1.70
2023-05-19T10:41:21.558Z,1.48
2023-05-19T10:44:17.312Z,1.30
2023-05-19T10:46:45.137Z,1.45
2023-05-19T10:49:23.801Z,1.40
2023-05-19T10:51:58.637Z,1.45
2023-05-19T10:54:47.382Z,1.63
2023-05-19T10:57:18.045Z,1.67
2023-05-19T10:59:45.993Z,1.50
2023-05-19T11:02:57.847Z,1.75
2023-05-19T11:05:29.935Z,1.50
2023-05-19T11:08:09.074Z,1.77
2023-05-19T11:10:37.049Z,1.30
2023-05-19T11:13:06.484Z,1.33
2023-05-19T11:15:37.650Z,1.48
2023-05-19T11:18:07.137Z,1.52
2023-05-19T11:20:39.525Z,1.60
2023-05-19T11:23:09.022Z,1.52
2023-05-19T11:25:55.113Z,1.40
2023-05-19T11:28:27.694Z,1.20
2023-05-19T11:31:00.566Z,1.70
2023-05-19T11:33:32.553Z,1.08
2023-05-19T11:36:00.388Z,1.55
2023-05-19T11:38:30.149Z,1.30
2023-05-19T11:40:58.335Z,1.13
2023-05-19T11:43:26.437Z,1.40
2023-05-19T11:45:55.888Z,1.40
2023-05-19T11:48:26.328Z,1.38
2023-05-19T11:50:54.450Z,1.40
2023-05-19T11:53:23.447Z,1.40
2023-05-19T11:55:51.791Z,1.55
2023-05-19T11:58:26.895Z,1.65
2023-05-19T12:00:55.883Z,1.27
2023-05-19T12:03:28.803Z,1.40
2023-05-19T12:05:56.887Z,1.60
2023-05-19T12:08:25.616Z,1.50
2023-05-19T12:10:54.114Z,1.50
2023-05-19T12:13:22.926Z,1.33
2023-05-19T12:15:52.801Z,1.35
2023-05-19T12:18:21.205Z,1.30
2023-05-19T12:20:49.184Z,1.35
2023-05-19T12:23:17.244Z,1.40
2023-05-19T12:25:45.300Z,1.35
2023-05-19T12:28:13.083Z,1.30
2023-05-19T12:30:41.391Z,1.48
2023-05-19T12:33:10.979Z,1.10
2023-05-19T12:35:38.891Z,1.30
2023-05-19T12:38:09.520Z,1.20
2023-05-19T12:40:42.280Z,1.40
2023-05-19T12:43:23.057Z,1.70
2023-05-19T12:45:52.814Z,1.52
2023-05-19T12:48:22.946Z,1.55
2023-05-19T12:50:55.930Z,1.40
2023-05-19T12:53:28.211Z,1.40
2023-05-19T12:55:56.293Z,1.30
2023-05-19T12:58:24.328Z,1.45
2023-05-19T13:00:59.757Z,1.50
2023-05-19T13:03:27.715Z,1.73
2023-05-19T13:05:57.110Z,1.30
2023-05-19T13:08:24.980Z,1.60
2023-05-19T13:10:52.870Z,1.58
2023-05-19T13:13:20.716Z,1.67
2023-05-19T13:15:49.182Z,1.80
2023-05-19T13:18:18.169Z,1.52
2023-05-19T13:20:47.115Z,1.85
2023-05-19T13:23:16.235Z,1.58
2023-05-19T13:25:46.044Z,1.45
2023-05-19T13:28:13.978Z,1.63
2023-05-19T13:30:43.752Z,1.60
2023-05-19T13:33:12.041Z,1.60
2023-05-19T13:35:42.011Z,1.43
2023-05-19T13:38:10.745Z,1.63
2023-05-19T13:40:39.830Z,1.65
2023-05-19T13:43:08.581Z,1.60
2023-05-19T13:45:36.819Z,1.80
2023-05-19T13:48:07.208Z,1.40
2023-05-19T13:50:36.031Z,1.67
2023-05-19T13:53:04.055Z,1.92
2023-05-19T13:55:33.284Z,1.80
2023-05-19T13:58:01.209Z,1.50
2023-05-19T14:00:29.555Z,1.50
2023-05-19T14:03:00.296Z,1.57
2023-05-19T14:05:29.066Z,1.60
2023-05-19T14:07:57.112Z,1.48
2023-05-19T14:10:25.097Z,1.60
2023-05-19T14:13:28.931Z,1.55
2023-05-19T14:15:46.512Z,1.50
2023-05-19T14:18:16.546Z,1.60
2023-05-19T14:20:44.412Z,1.30
2023-05-19T14:23:12.420Z,1.25
2023-05-19T14:25:40.365Z,1.23
2023-05-19T14:28:08.258Z,1.40
2023-05-19T14:30:37.602Z,1.50
2023-05-19T14:33:05.492Z,1.50
2023-05-19T14:35:33.376Z,1.63
2023-05-19T14:38:01.162Z,1.35
2023-05-19T14:40:28.966Z,1.50
2023-05-19T14:42:57.074Z,1.52
2023-05-19T14:45:24.938Z,1.70
2023-05-19T14:47:53.025Z,1.70
2023-05-19T14:50:20.960Z,1.23
2023-05-19T14:52:48.763Z,1.65
2023-05-19T14:55:17.514Z,1.40
2023-05-19T14:57:46.020Z,1.60
2023-05-19T15:00:14.414Z,1.50
2023-05-19T15:02:42.376Z,1.50
2023-05-19T15:05:11.393Z,1.40
2023-05-19T15:07:39.175Z,1.30
2023-05-19T15:10:07.678Z,1.85
2023-05-19T15:12:35.573Z,1.80
2023-05-19T15:15:03.873Z,1.27
2023-05-19T15:17:32.460Z,1.33
2023-05-19T15:20:00.499Z,1.48
2023-05-19T15:22:28.256Z,1.25
2023-05-19T15:24:56.087Z,1.60
2023-05-19T15:27:23.847Z,1.48
2023-05-19T15:29:52.068Z,1.48
2023-05-19T15:32:20.225Z,1.60
2023-05-19T15:34:48.041Z,1.60
2023-05-19T15:37:15.926Z,1.42
2023-05-19T15:39:43.751Z,1.50
2023-05-19T15:42:11.506Z,1.63
2023-05-19T15:44:39.279Z,1.40
2023-05-19T15:47:07.060Z,1.65
2023-05-19T15:49:34.899Z,1.40
2023-05-19T15:52:04.272Z,1.65
2023-05-19T15:54:32.053Z,1.40
2023-05-19T15:56:59.790Z,1.40
2023-05-19T15:59:27.566Z,1.70
2023-05-19T16:01:55.528Z,1.58
2023-05-19T16:04:23.433Z,1.70
2023-05-19T16:06:51.335Z,1.50
2023-05-19T16:09:19.141Z,1.58
2023-05-19T16:11:46.894Z,1.60
2023-05-19T16:14:14.799Z,1.30
2023-05-19T16:16:44.410Z,1.40
2023-05-19T16:19:12.273Z,1.40
2023-05-19T16:21:40.138Z,1.90
2023-05-19T16:24:08.033Z,2.00
2023-05-19T16:26:35.819Z,1.60
2023-05-19T16:29:03.786Z,1.50
2023-05-19T16:31:31.693Z,1.45
2023-05-19T16:33:59.443Z,1.75
2023-05-19T16:36:27.398Z,1.73
2023-05-19T16:38:55.191Z,1.48
2023-05-19T16:41:22.941Z,1.42
2023-05-19T16:43:50.673Z,1.67
2023-05-19T16:46:18.667Z,1.45
2023-05-19T16:48:46.551Z,1.63
2023-05-19T16:51:15.251Z,1.70
2023-05-19T16:53:42.989Z,1.38
2023-05-19T16:56:11.557Z,1.42
2023-05-19T16:58:39.393Z,1.90
2023-05-19T17:01:07.327Z,1.38
2023-05-19T17:03:35.982Z,1.77
2023-05-19T17:06:03.883Z,1.60
2023-05-19T17:08:31.748Z,1.30
2023-05-19T17:10:59.462Z,1.27
2023-05-19T17:13:28.721Z,1.70
2023-05-19T17:15:56.721Z,1.40
2023-05-19T17:18:24.508Z,1.80
2023-05-19T17:20:52.278Z,1.42
2023-05-19T17:23:20.069Z,1.42
2023-05-19T17:25:48.280Z,1.30
2023-05-19T17:28:16.039Z,1.35
2023-05-19T17:30:43.781Z,1.30
2023-05-19T17:33:11.592Z,1.38
2023-05-19T17:35:41.193Z,1.40
2023-05-19T17:38:09.031Z,1.40
2023-05-19T17:40:37.146Z,1.60
2023-05-19T17:43:06.124Z,1.25
2023-05-19T17:45:34.225Z,1.38
2023-05-19T17:48:02.088Z,1.60
2023-05-19T17:50:29.849Z,1.55
2023-05-19T17:52:59.930Z,1.50
2023-05-19T17:55:30.298Z,1.52
2023-05-19T17:57:58.527Z,1.33
2023-05-19T18:00:26.847Z,1.60
2023-05-19T18:02:57.021Z,1.70
2023-05-19T18:05:25.776Z,1.40
2023-05-19T18:07:57.529Z,1.67
2023-05-19T18:10:27.381Z,1.60
2023-05-19T18:12:56.553Z,1.42
2023-05-19T18:15:24.467Z,1.77
2023-05-19T18:17:52.681Z,1.42
2023-05-19T18:20:20.665Z,1.52
2023-05-19T18:22:50.083Z,1.42
2023-05-19T18:25:19.946Z,1.50
2023-05-19T18:27:47.813Z,1.38
2023-05-19T18:30:15.815Z,1.55
2023-05-19T18:32:43.641Z,1.13
2023-05-19T18:35:11.631Z,1.63
2023-05-19T18:37:39.540Z,1.38
2023-05-19T18:40:08.774Z,1.73
2023-05-19T18:42:36.846Z,1.50
2023-05-19T18:45:06.292Z,1.50
2023-05-19T18:47:35.880Z,2.05
2023-05-19T18:50:08.101Z,1.50
2023-05-19T18:52:37.164Z,1.70
2023-05-19T18:55:07.226Z,1.42
2023-05-19T18:57:35.496Z,1.48
2023-05-19T19:00:04.314Z,1.33
2023-05-19T19:02:32.324Z,1.48
2023-05-19T19:05:04.062Z,1.60
2023-05-19T19:07:32.242Z,1.50
2023-05-19T19:10:00.130Z,1.33
2023-05-19T19:12:28.758Z,1.60
2023-05-19T19:14:56.801Z,1.50
2023-05-19T19:17:25.112Z,1.63
2023-05-19T19:19:53.372Z,1.42
2023-05-19T19:22:21.530Z,1.40
2023-05-19T19:24:49.465Z,1.50
2023-05-19T19:27:17.781Z,1.80
2023-05-19T19:29:47.546Z,1.70
2023-05-19T19:32:16.420Z,1.50
2023-05-19T19:34:46.293Z,1.50
2023-05-19T19:37:14.583Z,1.73
2023-05-19T19:39:42.472Z,1.60
2023-05-19T19:42:10.535Z,1.45
2023-05-19T19:44:38.699Z,1.70
2023-05-19T19:47:06.840Z,1.50
2023-05-19T19:49:35.607Z,1.70
2023-05-19T19:52:03.879Z,1.30
2023-05-19T19:54:32.685Z,1.58
2023-05-19T19:57:02.537Z,1.52
2023-05-19T19:59:30.680Z,1.60
2023-05-19T20:02:01.049Z,1.70
2023-05-19T20:04:29.477Z,1.33
2023-05-19T20:06:57.966Z,1.45
2023-05-19T20:09:26.397Z,1.67
2023-05-19T20:11:54.238Z,1.98
2023-05-19T20:14:22.336Z,1.80
2023-05-19T20:16:50.139Z,1.85
2023-05-19T20:19:18.302Z,1.63
2023-05-19T20:21:46.880Z,1.38
2023-05-19T20:24:14.764Z,1.38
2023-05-19T20:26:42.979Z,1.60
2023-05-19T20:29:11.024Z,1.70
2023-05-19T20:31:39.009Z,1.60
2023-05-19T20:34:07.049Z,1.85
2023-05-19T20:36:35.136Z,1.90
2023-05-19T20:39:03.739Z,1.80
2023-05-19T20:41:32.056Z,1.80
2023-05-19T20:44:00.114Z,1.90
2023-05-19T20:46:28.757Z,2.17
2023-05-19T20:48:56.644Z,2.00
2023-05-19T20:51:25.361Z,2.10
2023-05-19T20:53:53.707Z,2.10
2023-05-19T20:56:22.590Z,2.33
2023-05-19T20:58:50.563Z,2.35
2023-05-19T21:01:18.292Z,2.50
2023-05-19T21:03:46.109Z,2.40
2023-05-19T21:06:15.841Z,2.40
2023-05-19T21:08:43.641Z,2.58
2023-05-19T21:11:11.396Z,2.40
2023-05-19T21:13:39.365Z,2.50
2023-05-19T21:16:07.514Z,2.92
2023-05-19T21:18:35.433Z,2.83
2023-05-19T21:21:04.222Z,3.42
2023-05-19T21:23:32.145Z,4.47
2023-05-19T21:26:00.287Z,4.75
2023-05-19T21:28:28.119Z,4.75
2023-05-19T21:30:56.039Z,4.53
2023-05-19T21:33:23.825Z,3.88
2023-05-19T21:35:51.538Z,3.90
2023-05-19T21:38:23.853Z,3.35
2023-05-19T21:40:53.288Z,3.40
2023-05-19T21:43:21.909Z,3.00
2023-05-19T21:45:49.834Z,3.20
2023-05-19T21:48:17.858Z,3.35
2023-05-19T21:50:45.634Z,2.80
2023-05-19T21:53:13.372Z,3.38
2023-05-19T21:55:41.190Z,3.22
2023-05-19T21:58:09.041Z,3.13
2023-05-19T22:00:37.070Z,3.70
2023-05-19T22:03:05.214Z,3.13
2023-05-19T22:05:35.202Z,3.40
2023-05-19T22:08:03.650Z,3.33
2023-05-19T22:10:31.973Z,3.00
2023-05-19T22:12:59.961Z,3.17
2023-05-19T22:15:28.693Z,2.65
2023-05-19T22:17:56.558Z,3.03
2023-05-19T22:20:24.737Z,2.30
2023-05-19T22:22:52.635Z,2.78
2023-05-19T22:25:20.469Z,2.45
2023-05-19T22:27:48.246Z,2.45
2023-05-19T22:30:16.553Z,2.20
2023-05-19T22:32:44.340Z,2.00
2023-05-19T22:35:12.624Z,1.92
2023-05-19T22:37:40.414Z,2.10
2023-05-19T22:40:08.887Z,2.17
2023-05-19T22:42:36.790Z,2.42
2023-05-19T22:45:05.524Z,2.35
2023-05-19T22:47:33.342Z,2.10
2023-05-19T22:50:01.181Z,2.20
2023-05-19T22:52:28.944Z,2.30
2023-05-19T22:54:57.113Z,2.30
2023-05-19T22:57:24.857Z,2.10
2023-05-19T22:59:52.650Z,1.83
2023-05-19T23:02:20.376Z,2.22
2023-05-19T23:04:48.137Z,1.98
2023-05-19T23:07:16.149Z,1.85
2023-05-19T23:09:43.915Z,1.90
2023-05-19T23:12:11.641Z,1.52
2023-05-19T23:14:39.484Z,1.92
2023-05-19T23:17:07.392Z,1.77
2023-05-19T23:19:36.874Z,1.80
2023-05-19T23:22:04.795Z,1.50
2023-05-19T23:24:32.638Z,1.67
2023-05-19T23:27:01.190Z,1.80
2023-05-19T23:29:29.061Z,1.65
2023-05-19T23:31:56.873Z,1.60
2023-05-19T23:34:24.664Z,1.45
2023-05-19T23:36:52.399Z,1.75
2023-05-19T23:39:21.880Z,1.73
2023-05-19T23:41:49.654Z,1.63
2023-05-19T23:44:18.773Z,1.75
2023-05-19T23:46:46.623Z,1.67
2023-05-19T23:49:14.634Z,1.75
2023-05-19T23:51:42.451Z,1.52
2023-05-19T23:54:10.329Z,1.50
2023-05-19T23:56:38.116Z,1.42
2023-05-19T23:59:06.026Z,1.70
